Time;durP1;ratioP1;P1;durP2;ratioP2;P2;SDS_P1;SDS_P2;PMS_P1;PMS_P2;Temp;Humidity;BMP_temperature;BMP_pressure;BME280_temperature;BME280_humidity;BME280_pressure;Samples;Min_cycle;Max_cycle;Signal;HPM_P1;HPM_P2
2023/05/06 00:00:30;;;;;;;0.60;0.60;;;;;;;;;;4945015;29;20502;-79
2023/05/06 00:02:59;;;;;;;0.90;0.90;;;;;;;;;;4944375;29;21062;-79
2023/05/06 00:05:26;;;;;;;0.60;0.60;;;;;;;;;;4939971;29;20452;-82
2023/05/06 00:07:58;;;;;;;0.60;0.50;;;;;;;;;;4940768;29;20553;-81
2023/05/06 00:10:26;;;;;;;0.60;0.50;;;;;;;;;;4929338;29;20470;-81
2023/05/06 00:12:54;;;;;;;0.60;0.60;;;;;;;;;;4938172;29;20465;-79
2023/05/06 00:15:22;;;;;;;0.70;0.70;;;;;;;;;;4941180;29;20438;-80
2023/05/06 00:17:49;;;;;;;0.60;0.60;;;;;;;;;;4940164;29;20537;-80
2023/05/06 00:20:17;;;;;;;0.60;0.60;;;;;;;;;;4939354;28;20555;-80
2023/05/06 00:22:45;;;;;;;0.63;0.63;;;;;;;;;;4939363;29;20471;-79
2023/05/06 00:25:12;;;;;;;0.70;0.70;;;;;;;;;;4938955;29;20466;-79
2023/05/06 00:27:39;;;;;;;0.60;0.60;;;;;;;;;;4913846;29;20548;-80
2023/05/06 00:30:09;;;;;;;0.70;0.70;;;;;;;;;;4924436;29;20455;-80
2023/05/06 00:32:37;;;;;;;1.33;0.90;;;;;;;;;;4937869;29;20559;-80
2023/05/06 00:35:04;;;;;;;0.60;0.60;;;;;;;;;;4936622;29;20469;-81
2023/05/06 00:37:31;;;;;;;0.60;0.50;;;;;;;;;;4940362;29;20491;-78
2023/05/06 00:39:59;;;;;;;0.60;0.60;;;;;;;;;;4935215;29;20467;-79
2023/05/06 00:42:26;;;;;;;0.60;0.60;;;;;;;;;;4944107;29;20440;-80
2023/05/06 00:44:53;;;;;;;0.60;0.60;;;;;;;;;;4936546;29;20977;-79
2023/05/06 00:47:23;;;;;;;0.60;0.60;;;;;;;;;;4920360;29;20472;-80
2023/05/06 00:49:50;;;;;;;0.60;0.60;;;;;;;;;;4937460;28;20451;-80
2023/05/06 00:52:18;;;;;;;0.70;0.60;;;;;;;;;;4927947;29;20495;-80
2023/05/06 00:54:45;;;;;;;0.60;0.50;;;;;;;;;;4939720;29;20783;-79
2023/05/06 00:57:12;;;;;;;0.60;0.50;;;;;;;;;;4941194;29;20465;-81
2023/05/06 00:59:40;;;;;;;0.60;0.50;;;;;;;;;;4943682;29;20472;-81
2023/05/06 01:02:08;;;;;;;0.60;0.53;;;;;;;;;;4946314;29;20464;-81
2023/05/06 01:04:37;;;;;;;0.60;0.60;;;;;;;;;;4943305;29;20535;-79
2023/05/06 01:07:07;;;;;;;0.60;0.60;;;;;;;;;;4943323;29;20518;-79
2023/05/06 01:09:38;;;;;;;0.70;0.70;;;;;;;;;;4942873;29;20507;-79
2023/05/06 01:12:06;;;;;;;1.23;1.17;;;;;;;;;;4947697;29;20990;-82
2023/05/06 01:14:37;;;;;;;0.60;0.60;;;;;;;;;;4937808;29;20474;-78
2023/05/06 01:17:08;;;;;;;0.60;0.60;;;;;;;;;;4940744;29;20452;-81
2023/05/06 01:19:45;;;;;;;0.60;0.50;;;;;;;;;;4947899;29;20540;-80
2023/05/06 01:22:13;;;;;;;0.60;0.60;;;;;;;;;;4927282;29;20579;-80
2023/05/06 01:24:42;;;;;;;0.60;0.60;;;;;;;;;;4925750;29;21050;-81
2023/05/06 01:27:10;;;;;;;1.43;1.33;;;;;;;;;;4926670;29;20460;-80
2023/05/06 01:29:37;;;;;;;0.90;0.90;;;;;;;;;;4940772;29;20438;-81
2023/05/06 01:32:10;;;;;;;0.60;0.60;;;;;;;;;;4939281;29;21090;-81
2023/05/06 01:34:40;;;;;;;0.60;0.50;;;;;;;;;;4942280;29;20437;-81
2023/05/06 01:37:13;;;;;;;0.60;0.50;;;;;;;;;;4940971;29;20476;-81
2023/05/06 01:39:42;;;;;;;0.60;0.57;;;;;;;;;;4926495;29;20912;-81
2023/05/06 01:42:09;;;;;;;0.60;0.60;;;;;;;;;;4941678;28;20449;-81
2023/05/06 01:44:37;;;;;;;0.90;0.73;;;;;;;;;;4941634;28;20553;-80
2023/05/06 01:47:06;;;;;;;0.60;0.50;;;;;;;;;;4927962;29;20962;-80
2023/05/06 01:49:33;;;;;;;0.60;0.50;;;;;;;;;;4944526;29;20456;-81
2023/05/06 01:52:00;;;;;;;0.60;0.50;;;;;;;;;;4944820;29;20485;-80
2023/05/06 01:54:27;;;;;;;0.60;0.60;;;;;;;;;;4931518;29;20459;-80
2023/05/06 01:56:56;;;;;;;1.43;1.13;;;;;;;;;;4946852;29;20567;-82
2023/05/06 01:59:24;;;;;;;0.70;0.70;;;;;;;;;;4930750;28;20442;-80
2023/05/06 02:01:51;;;;;;;0.60;0.60;;;;;;;;;;4951303;28;21021;-81
2023/05/06 02:04:20;;;;;;;0.90;0.90;;;;;;;;;;4945034;29;20485;-79
2023/05/06 02:06:48;;;;;;;0.60;0.60;;;;;;;;;;4940182;29;20496;-79
2023/05/06 02:09:16;;;;;;;0.60;0.60;;;;;;;;;;4942262;29;20450;-81
2023/05/06 02:11:50;;;;;;;0.60;0.60;;;;;;;;;;4944390;29;20563;-81
2023/05/06 02:14:19;;;;;;;0.70;0.70;;;;;;;;;;4946417;29;20511;-80
2023/05/06 02:16:46;;;;;;;0.60;0.60;;;;;;;;;;4942161;29;20555;-79
2023/05/06 02:19:14;;;;;;;0.60;0.60;;;;;;;;;;4929799;29;20912;-80
2023/05/06 02:21:41;;;;;;;1.40;1.30;;;;;;;;;;4939763;29;21049;-79
2023/05/06 02:24:08;;;;;;;0.60;0.60;;;;;;;;;;4929092;29;20457;-79
2023/05/06 02:26:36;;;;;;;0.60;0.50;;;;;;;;;;4944569;29;20458;-81
2023/05/06 02:29:04;;;;;;;0.60;0.60;;;;;;;;;;4938885;29;20440;-81
2023/05/06 02:31:32;;;;;;;0.80;0.80;;;;;;;;;;4941142;29;20479;-80
2023/05/06 02:33:59;;;;;;;0.60;0.50;;;;;;;;;;4943465;29;20527;-80
2023/05/06 02:36:27;;;;;;;0.60;0.60;;;;;;;;;;4942963;29;20470;-81
2023/05/06 02:38:55;;;;;;;0.60;0.60;;;;;;;;;;4944921;29;20454;-80
2023/05/06 02:41:24;;;;;;;0.60;0.50;;;;;;;;;;4925849;29;20468;-81
2023/05/06 02:43:53;;;;;;;0.60;0.50;;;;;;;;;;4941418;29;20887;-81
2023/05/06 02:46:21;;;;;;;0.60;0.60;;;;;;;;;;4944602;28;20466;-80
2023/05/06 02:48:52;;;;;;;0.60;0.57;;;;;;;;;;4938973;29;20471;-81
2023/05/06 02:51:19;;;;;;;0.87;0.87;;;;;;;;;;4938298;29;20498;-81
2023/05/06 02:53:46;;;;;;;0.60;0.60;;;;;;;;;;4947029;29;21132;-81
2023/05/06 02:56:13;;;;;;;0.60;0.60;;;;;;;;;;4944100;29;20460;-81
2023/05/06 02:58:41;;;;;;;0.60;0.50;;;;;;;;;;4925834;29;20572;-81
2023/05/06 03:01:08;;;;;;;0.60;0.60;;;;;;;;;;4936224;29;20458;-79
2023/05/06 03:03:35;;;;;;;0.60;0.60;;;;;;;;;;4944258;29;20817;-80
2023/05/06 03:06:04;;;;;;;0.60;0.60;;;;;;;;;;4947038;29;20464;-79
2023/05/06 03:08:33;;;;;;;0.60;0.60;;;;;;;;;;4936827;29;20458;-80
2023/05/06 03:11:05;;;;;;;0.60;0.50;;;;;;;;;;4941903;29;20500;-80
2023/05/06 03:13:36;;;;;;;0.60;0.50;;;;;;;;;;4910876;29;20540;-79
2023/05/06 03:16:03;;;;;;;0.60;0.60;;;;;;;;;;4934352;29;21009;-79
2023/05/06 03:18:30;;;;;;;0.60;0.60;;;;;;;;;;4940384;29;20502;-79
2023/05/06 03:20:58;;;;;;;0.60;0.60;;;;;;;;;;4948201;28;20459;-81
2023/05/06 03:23:30;;;;;;;0.60;0.57;;;;;;;;;;4946813;29;20551;-79
2023/05/06 03:26:01;;;;;;;0.60;0.60;;;;;;;;;;4941877;29;20452;-80
2023/05/06 03:28:33;;;;;;;0.60;0.60;;;;;;;;;;4942288;28;20440;-79
2023/05/06 03:31:03;;;;;;;1.10;1.00;;;;;;;;;;4945273;29;20937;-79
2023/05/06 03:33:33;;;;;;;0.60;0.60;;;;;;;;;;4940844;29;20492;-80
2023/05/06 03:36:04;;;;;;;0.60;0.60;;;;;;;;;;4938244;29;21033;-81
2023/05/06 03:38:36;;;;;;;0.60;0.60;;;;;;;;;;4928247;28;20457;-81
2023/05/06 03:41:06;;;;;;;0.60;0.50;;;;;;;;;;4939822;29;20443;-81
2023/05/06 03:43:36;;;;;;;0.60;0.60;;;;;;;;;;4942184;29;20463;-81
2023/05/06 03:46:06;;;;;;;0.60;0.50;;;;;;;;;;4940775;28;20493;-80
2023/05/06 03:48:35;;;;;;;0.60;0.50;;;;;;;;;;4941783;29;20446;-79
2023/05/06 03:51:07;;;;;;;0.60;0.50;;;;;;;;;;4939254;29;20449;-79
2023/05/06 03:53:37;;;;;;;0.60;0.60;;;;;;;;;;4936494;29;20534;-78
2023/05/06 03:56:04;;;;;;;0.70;0.63;;;;;;;;;;4935518;29;20455;-78
2023/05/06 03:58:33;;;;;;;0.60;0.60;;;;;;;;;;4945354;29;20869;-79
2023/05/06 04:01:03;;;;;;;0.60;0.60;;;;;;;;;;4946078;29;20589;-78
2023/05/06 04:03:32;;;;;;;0.70;0.70;;;;;;;;;;4942131;28;20518;-81
2023/05/06 04:06:03;;;;;;;0.80;0.77;;;;;;;;;;4940972;29;20516;-79
2023/05/06 04:08:31;;;;;;;0.60;0.50;;;;;;;;;;4940693;29;20505;-81
2023/05/06 04:11:05;;;;;;;0.60;0.60;;;;;;;;;;4938326;28;20456;-81
2023/05/06 04:13:33;;;;;;;0.60;0.50;;;;;;;;;;4938338;29;20463;-79
2023/05/06 04:16:06;;;;;;;0.60;0.60;;;;;;;;;;4941309;29;20465;-78
2023/05/06 04:18:39;;;;;;;0.60;0.60;;;;;;;;;;4936246;29;20455;-81
2023/05/06 04:21:12;;;;;;;0.60;0.60;;;;;;;;;;4941138;29;20482;-80
2023/05/06 04:23:47;;;;;;;0.60;0.60;;;;;;;;;;4938490;29;20459;-81
2023/05/06 04:26:24;;;;;;;0.60;0.57;;;;;;;;;;4937095;29;20462;-81
2023/05/06 04:28:54;;;;;;;0.60;0.50;;;;;;;;;;4935787;29;20431;-81
2023/05/06 04:31:28;;;;;;;0.60;0.50;;;;;;;;;;4953845;28;20468;-80
2023/05/06 04:34:00;;;;;;;0.60;0.60;;;;;;;;;;4923676;29;20993;-81
2023/05/06 04:36:31;;;;;;;0.60;0.50;;;;;;;;;;4940649;29;20461;-80
2023/05/06 04:39:25;;;;;;;0.60;0.60;;;;;;;;;;4936958;28;20865;-81
2023/05/06 04:42:04;;;;;;;1.03;1.00;;;;;;;;;;4933853;29;20453;-82
2023/05/06 04:44:41;;;;;;;0.60;0.50;;;;;;;;;;4938200;29;20438;-81
2023/05/06 04:47:09;;;;;;;0.60;0.60;;;;;;;;;;4940280;28;20787;-82
2023/05/06 04:49:38;;;;;;;0.60;0.53;;;;;;;;;;4923292;29;20980;-81
2023/05/06 04:52:08;;;;;;;0.60;0.50;;;;;;;;;;4949617;29;20577;-78
2023/05/06 04:54:43;;;;;;;0.60;0.60;;;;;;;;;;4937943;29;20898;-80
2023/05/06 04:57:19;;;;;;;0.60;0.50;;;;;;;;;;4938855;29;20914;-79
2023/05/06 04:59:50;;;;;;;0.60;0.60;;;;;;;;;;4934510;29;20481;-80
2023/05/06 05:02:19;;;;;;;0.60;0.60;;;;;;;;;;4926858;29;20446;-79
2023/05/06 05:04:49;;;;;;;0.60;0.60;;;;;;;;;;4936095;29;20457;-79
2023/05/06 05:07:17;;;;;;;0.60;0.50;;;;;;;;;;4943347;28;20525;-81
2023/05/06 05:09:47;;;;;;;0.60;0.60;;;;;;;;;;4939295;29;20450;-80
2023/05/06 05:12:16;;;;;;;0.60;0.60;;;;;;;;;;4937488;29;20893;-80
2023/05/06 05:14:48;;;;;;;0.60;0.60;;;;;;;;;;4922228;29;20473;-80
2023/05/06 05:17:20;;;;;;;0.60;0.60;;;;;;;;;;4937457;29;20532;-79
2023/05/06 05:19:51;;;;;;;0.60;0.60;;;;;;;;;;4941845;29;20480;-81
2023/05/06 05:22:21;;;;;;;0.70;0.70;;;;;;;;;;4940951;29;20471;-79
2023/05/06 05:24:49;;;;;;;0.60;0.60;;;;;;;;;;4952978;28;20496;-79
2023/05/06 05:27:19;;;;;;;2.10;1.10;;;;;;;;;;4939081;29;20440;-81
2023/05/06 05:29:53;;;;;;;0.60;0.60;;;;;;;;;;4939870;29;20462;-81
2023/05/06 05:32:21;;;;;;;0.60;0.60;;;;;;;;;;4937234;29;20854;-79
2023/05/06 05:34:49;;;;;;;0.70;0.70;;;;;;;;;;4937149;29;20482;-80
2023/05/06 05:37:21;;;;;;;0.60;0.60;;;;;;;;;;4937434;28;20495;-79
2023/05/06 05:39:49;;;;;;;0.60;0.53;;;;;;;;;;4944759;29;20454;-79
2023/05/06 05:42:16;;;;;;;0.60;0.60;;;;;;;;;;4944825;29;20491;-79
2023/05/06 05:44:45;;;;;;;0.60;0.60;;;;;;;;;;4940427;29;20552;-79
2023/05/06 05:47:21;;;;;;;0.60;0.60;;;;;;;;;;4938098;29;20444;-81
2023/05/06 05:49:53;;;;;;;0.70;0.70;;;;;;;;;;4947636;29;20966;-80
2023/05/06 05:52:24;;;;;;;0.60;0.60;;;;;;;;;;4941918;29;20821;-82
2023/05/06 05:54:58;;;;;;;1.73;1.20;;;;;;;;;;4942764;29;20456;-82
2023/05/06 05:57:30;;;;;;;0.60;0.60;;;;;;;;;;4954203;28;20454;-80
2023/05/06 06:00:02;;;;;;;0.60;0.60;;;;;;;;;;4938054;29;20517;-80
2023/05/06 06:02:52;;;;;;;0.60;0.60;;;;;;;;;;4957923;28;20999;-79
2023/05/06 06:05:19;;;;;;;0.60;0.60;;;;;;;;;;4923834;28;20460;-78
2023/05/06 06:07:48;;;;;;;0.60;0.60;;;;;;;;;;4957701;28;20892;-81
2023/05/06 06:10:16;;;;;;;0.60;0.60;;;;;;;;;;4945665;28;20807;-79
2023/05/06 06:12:44;;;;;;;0.60;0.60;;;;;;;;;;4942316;28;20482;-81
2023/05/06 06:15:20;;;;;;;0.70;0.60;;;;;;;;;;4947372;28;20550;-80
2023/05/06 06:17:51;;;;;;;1.73;1.63;;;;;;;;;;4959751;28;20478;-78
2023/05/06 06:20:25;;;;;;;0.60;0.60;;;;;;;;;;4925918;29;20466;-81
2023/05/06 06:22:54;;;;;;;0.63;0.63;;;;;;;;;;4943690;28;20482;-81
2023/05/06 06:25:21;;;;;;;0.90;0.90;;;;;;;;;;4934135;28;20966;-80
2023/05/06 06:27:49;;;;;;;0.70;0.70;;;;;;;;;;4943037;28;20494;-79
2023/05/06 06:30:17;;;;;;;0.60;0.60;;;;;;;;;;4918838;29;20453;-80
2023/05/06 06:32:48;;;;;;;0.60;0.50;;;;;;;;;;4941791;28;20479;-80
2023/05/06 06:35:15;;;;;;;0.60;0.60;;;;;;;;;;4928189;28;20455;-81
2023/05/06 06:37:44;;;;;;;2.30;1.23;;;;;;;;;;4945398;29;20479;-80
2023/05/06 06:40:12;;;;;;;0.60;0.60;;;;;;;;;;4940732;29;20461;-82
2023/05/06 06:42:39;;;;;;;0.60;0.60;;;;;;;;;;4937612;29;20964;-80
2023/05/06 06:45:22;;;;;;;0.60;0.50;;;;;;;;;;4927741;29;20870;-80
2023/05/06 06:47:50;;;;;;;0.63;0.63;;;;;;;;;;4943317;28;20506;-80
2023/05/06 06:50:17;;;;;;;0.60;0.60;;;;;;;;;;4942312;29;20505;-78
2023/05/06 06:52:45;;;;;;;0.60;0.60;;;;;;;;;;4944325;29;20483;-80
2023/05/06 06:55:12;;;;;;;0.60;0.60;;;;;;;;;;4943068;29;20559;-80
2023/05/06 06:57:39;;;;;;;0.60;0.60;;;;;;;;;;4946425;29;20473;-81
2023/05/06 07:00:07;;;;;;;0.60;0.60;;;;;;;;;;4934523;29;20927;-81
2023/05/06 07:02:35;;;;;;;0.60;0.60;;;;;;;;;;4920966;29;20535;-81
2023/05/06 07:05:02;;;;;;;0.60;0.60;;;;;;;;;;4942100;29;20460;-80
2023/05/06 07:07:29;;;;;;;0.60;0.50;;;;;;;;;;4943807;29;20469;-81
2023/05/06 07:09:58;;;;;;;0.60;0.60;;;;;;;;;;4947575;29;20441;-81
2023/05/06 07:12:25;;;;;;;0.60;0.60;;;;;;;;;;4941547;29;20933;-81
2023/05/06 07:14:53;;;;;;;0.70;0.70;;;;;;;;;;4940925;29;20488;-82
2023/05/06 07:17:20;;;;;;;1.03;1.03;;;;;;;;;;4926051;29;20571;-81
2023/05/06 07:19:48;;;;;;;0.60;0.60;;;;;;;;;;4942489;29;20458;-79
2023/05/06 07:22:15;;;;;;;1.50;1.40;;;;;;;;;;4936520;29;20575;-80
2023/05/06 07:24:42;;;;;;;0.87;0.87;;;;;;;;;;4920651;29;20457;-81
2023/05/06 07:27:10;;;;;;;0.60;0.60;;;;;;;;;;4937483;29;20448;-78
2023/05/06 07:29:37;;;;;;;0.60;0.60;;;;;;;;;;4940186;29;20868;-80
2023/05/06 07:32:04;;;;;;;0.70;0.70;;;;;;;;;;4933176;29;20876;-80
2023/05/06 07:34:33;;;;;;;1.40;1.30;;;;;;;;;;4942285;29;20441;-77
2023/05/06 07:37:00;;;;;;;0.60;0.60;;;;;;;;;;4938010;29;20472;-80
2023/05/06 07:39:27;;;;;;;0.77;0.77;;;;;;;;;;4936849;28;20465;-80
2023/05/06 07:41:54;;;;;;;0.60;0.60;;;;;;;;;;4939847;29;20945;-79
2023/05/06 07:44:22;;;;;;;0.70;0.60;;;;;;;;;;4937818;29;20478;-80
2023/05/06 07:46:49;;;;;;;0.70;0.70;;;;;;;;;;4939352;29;20822;-78
2023/05/06 07:49:16;;;;;;;0.60;0.60;;;;;;;;;;4946428;29;20486;-78
2023/05/06 07:51:43;;;;;;;0.70;0.70;;;;;;;;;;4942148;29;20459;-78
2023/05/06 07:54:11;;;;;;;0.60;0.60;;;;;;;;;;4936606;29;20483;-80
2023/05/06 07:56:38;;;;;;;0.70;0.70;;;;;;;;;;4942580;29;20782;-78
2023/05/06 07:59:05;;;;;;;0.70;0.70;;;;;;;;;;4938169;28;20444;-79
2023/05/06 08:01:35;;;;;;;0.70;0.70;;;;;;;;;;4941154;29;20881;-77
2023/05/06 08:04:02;;;;;;;0.73;0.73;;;;;;;;;;4936926;29;20827;-77
2023/05/06 08:06:31;;;;;;;0.67;0.67;;;;;;;;;;4939965;29;20469;-77
2023/05/06 08:08:57;;;;;;;0.70;0.70;;;;;;;;;;4940442;28;20483;-78
2023/05/06 08:11:24;;;;;;;0.70;0.60;;;;;;;;;;4941788;29;20535;-75
2023/05/06 08:13:52;;;;;;;0.60;0.60;;;;;;;;;;4928850;29;20513;-80
2023/05/06 08:16:19;;;;;;;0.70;0.70;;;;;;;;;;4940146;29;20491;-75
2023/05/06 08:18:52;;;;;;;0.70;0.70;;;;;;;;;;4939997;29;20944;-80
2023/05/06 08:21:21;;;;;;;0.60;0.60;;;;;;;;;;4940315;29;20470;-79
2023/05/06 08:23:47;;;;;;;0.70;0.70;;;;;;;;;;4952339;28;20489;-78
2023/05/06 08:26:14;;;;;;;0.90;0.90;;;;;;;;;;4925134;29;20465;-80
2023/05/06 08:28:43;;;;;;;0.70;0.60;;;;;;;;;;4944072;29;20496;-77
2023/05/06 08:31:10;;;;;;;0.70;0.70;;;;;;;;;;4921989;29;20470;-77
2023/05/06 08:33:39;;;;;;;0.70;0.70;;;;;;;;;;4939022;29;20479;-79
2023/05/06 08:36:07;;;;;;;0.70;0.67;;;;;;;;;;4932801;29;20470;-79
2023/05/06 08:38:35;;;;;;;0.80;0.80;;;;;;;;;;4937600;29;20549;-77
2023/05/06 08:41:07;;;;;;;0.80;0.80;;;;;;;;;;4913371;29;20818;-76
2023/05/06 08:43:40;;;;;;;0.70;0.70;;;;;;;;;;4937552;29;20473;-77
2023/05/06 08:46:07;;;;;;;0.70;0.70;;;;;;;;;;4939952;29;20445;-78
2023/05/06 08:48:36;;;;;;;0.80;0.80;;;;;;;;;;4922170;29;20594;-76
2023/05/06 08:51:03;;;;;;;0.70;0.67;;;;;;;;;;4937625;29;20464;-76
2023/05/06 08:53:33;;;;;;;0.80;0.80;;;;;;;;;;4944553;29;20611;-77
2023/05/06 08:56:03;;;;;;;0.70;0.70;;;;;;;;;;4938171;29;20857;-78
2023/05/06 08:58:33;;;;;;;0.70;0.60;;;;;;;;;;4936955;29;20508;-78
2023/05/06 09:01:02;;;;;;;0.70;0.70;;;;;;;;;;4940877;29;20444;-77
2023/05/06 09:03:29;;;;;;;0.90;0.90;;;;;;;;;;4943070;28;20440;-76
2023/05/06 09:05:57;;;;;;;0.70;0.60;;;;;;;;;;4932763;28;20803;-76
2023/05/06 09:08:26;;;;;;;0.70;0.60;;;;;;;;;;4943135;29;20439;-76
2023/05/06 09:10:55;;;;;;;0.70;0.60;;;;;;;;;;4937878;29;20781;-76
2023/05/06 09:13:22;;;;;;;0.80;0.80;;;;;;;;;;4948435;29;20476;-75
2023/05/06 09:15:51;;;;;;;0.70;0.63;;;;;;;;;;4940787;29;20633;-76
2023/05/06 09:18:19;;;;;;;0.80;0.80;;;;;;;;;;4939423;29;20462;-76
2023/05/06 09:20:47;;;;;;;0.70;0.60;;;;;;;;;;4941580;29;20496;-76
2023/05/06 09:23:16;;;;;;;1.57;1.00;;;;;;;;;;4945525;29;20476;-72
2023/05/06 09:25:44;;;;;;;0.70;0.60;;;;;;;;;;4939592;29;20472;-76
2023/05/06 09:28:13;;;;;;;0.70;0.60;;;;;;;;;;4941584;29;20801;-76
2023/05/06 09:30:40;;;;;;;0.70;0.50;;;;;;;;;;4941893;29;20856;-74
2023/05/06 09:33:09;;;;;;;0.70;0.50;;;;;;;;;;4932180;29;20496;-76
2023/05/06 09:35:36;;;;;;;0.73;0.63;;;;;;;;;;4928870;29;20460;-76
2023/05/06 09:38:07;;;;;;;0.70;0.60;;;;;;;;;;4941348;29;20535;-75
2023/05/06 09:40:43;;;;;;;0.70;0.60;;;;;;;;;;4950246;28;20489;-76
2023/05/06 09:43:11;;;;;;;0.73;0.60;;;;;;;;;;4942923;29;20528;-77
2023/05/06 09:45:42;;;;;;;0.70;0.50;;;;;;;;;;4942715;29;20539;-77
2023/05/06 09:48:11;;;;;;;0.70;0.50;;;;;;;;;;4924897;29;20449;-79
2023/05/06 09:50:41;;;;;;;0.70;0.70;;;;;;;;;;4940317;29;20456;-75
2023/05/06 09:53:10;;;;;;;0.80;0.60;;;;;;;;;;4939813;29;20453;-76
2023/05/06 09:55:38;;;;;;;0.70;0.50;;;;;;;;;;4941707;29;20449;-78
2023/05/06 09:58:07;;;;;;;0.70;0.60;;;;;;;;;;4944703;29;20445;-78
2023/05/06 10:00:35;;;;;;;0.70;0.60;;;;;;;;;;4944283;29;20809;-76
2023/05/06 10:03:04;;;;;;;0.70;0.50;;;;;;;;;;4939206;29;20518;-76
2023/05/06 10:05:32;;;;;;;0.80;0.67;;;;;;;;;;4928862;29;20551;-75
2023/05/06 10:08:00;;;;;;;0.70;0.53;;;;;;;;;;4940991;29;20464;-76
2023/05/06 10:10:32;;;;;;;0.73;0.67;;;;;;;;;;4940463;29;20460;-76
2023/05/06 10:13:00;;;;;;;0.70;0.50;;;;;;;;;;4945073;29;20485;-78
2023/05/06 10:15:29;;;;;;;0.70;0.50;;;;;;;;;;4957457;28;20491;-78
2023/05/06 10:17:58;;;;;;;0.80;0.60;;;;;;;;;;4927297;29;20790;-78
2023/05/06 10:20:28;;;;;;;0.70;0.50;;;;;;;;;;4948597;29;20473;-77
2023/05/06 10:23:00;;;;;;;0.70;0.50;;;;;;;;;;4930465;29;20572;-77
2023/05/06 10:25:33;;;;;;;0.70;0.50;;;;;;;;;;4929414;29;20463;-77
2023/05/06 10:28:02;;;;;;;0.70;0.50;;;;;;;;;;4945340;29;20432;-76
2023/05/06 10:30:36;;;;;;;0.70;0.50;;;;;;;;;;4950067;28;20723;-78
2023/05/06 10:33:04;;;;;;;0.80;0.60;;;;;;;;;;4940921;29;20567;-78
2023/05/06 10:35:37;;;;;;;0.70;0.50;;;;;;;;;;4929591;29;20453;-79
2023/05/06 10:38:07;;;;;;;0.70;0.50;;;;;;;;;;4940451;29;20486;-77
2023/05/06 10:40:34;;;;;;;0.70;0.50;;;;;;;;;;4928079;29;20474;-76
2023/05/06 10:43:20;;;;;;;0.70;0.50;;;;;;;;;;4931210;29;20448;-76
2023/05/06 10:45:57;;;;;;;0.70;0.50;;;;;;;;;;4957123;28;20457;-78
2023/05/06 10:48:24;;;;;;;0.70;0.50;;;;;;;;;;4933689;29;20443;-78
2023/05/06 10:51:21;;;;;;;0.70;0.60;;;;;;;;;;4951963;29;20959;-78
2023/05/06 10:53:59;;;;;;;0.70;0.50;;;;;;;;;;4935237;29;20512;-77
2023/05/06 10:56:30;;;;;;;0.70;0.50;;;;;;;;;;4945279;29;20468;-80
2023/05/06 10:59:00;;;;;;;0.70;0.50;;;;;;;;;;4955739;29;20436;-80
2023/05/06 11:01:29;;;;;;;0.70;0.50;;;;;;;;;;4949861;29;20446;-78
2023/05/06 11:03:57;;;;;;;0.70;0.50;;;;;;;;;;4949609;29;20475;-80
2023/05/06 11:06:36;;;;;;;0.70;0.60;;;;;;;;;;4948880;29;20421;-79
2023/05/06 11:09:06;;;;;;;0.70;0.50;;;;;;;;;;4946558;29;20511;-80
2023/05/06 11:11:47;;;;;;;0.77;0.57;;;;;;;;;;4945419;29;20444;-81
2023/05/06 11:14:24;;;;;;;0.70;0.50;;;;;;;;;;4951856;29;20818;-78
2023/05/06 11:16:52;;;;;;;0.70;0.50;;;;;;;;;;4946079;29;20468;-80
2023/05/06 11:19:20;;;;;;;0.70;0.50;;;;;;;;;;4948531;29;20456;-77
2023/05/06 11:21:50;;;;;;;0.70;0.60;;;;;;;;;;4932537;29;20498;-78
2023/05/06 11:24:23;;;;;;;0.70;0.50;;;;;;;;;;4936645;29;20499;-79
2023/05/06 11:26:50;;;;;;;0.70;0.60;;;;;;;;;;4956880;28;20453;-79
2023/05/06 11:29:17;;;;;;;0.70;0.60;;;;;;;;;;4954300;29;20952;-79
2023/05/06 11:31:46;;;;;;;0.70;0.60;;;;;;;;;;4943287;28;20509;-78
2023/05/06 11:34:20;;;;;;;0.70;0.50;;;;;;;;;;4941116;29;20502;-79
2023/05/06 11:36:52;;;;;;;0.70;0.50;;;;;;;;;;4937109;29;20844;-79
2023/05/06 11:39:20;;;;;;;0.70;0.60;;;;;;;;;;4939244;28;20573;-78
2023/05/06 11:41:48;;;;;;;0.70;0.50;;;;;;;;;;4941729;28;20469;-77
2023/05/06 11:44:25;;;;;;;0.70;0.50;;;;;;;;;;4942061;29;20551;-76
2023/05/06 11:47:04;;;;;;;0.70;0.50;;;;;;;;;;4944399;29;20557;-79
2023/05/06 11:49:37;;;;;;;0.70;0.57;;;;;;;;;;4946894;29;20943;-81
2023/05/06 11:52:07;;;;;;;0.90;0.70;;;;;;;;;;4927681;29;20476;-78
2023/05/06 11:54:34;;;;;;;0.70;0.50;;;;;;;;;;4945688;29;20444;-78
2023/05/06 11:57:02;;;;;;;0.70;0.60;;;;;;;;;;4943892;29;20472;-78
2023/05/06 11:59:30;;;;;;;1.00;0.87;;;;;;;;;;4942855;29;20450;-79
2023/05/06 12:01:59;;;;;;;0.70;0.60;;;;;;;;;;4940691;29;20532;-78
2023/05/06 12:04:40;;;;;;;0.70;0.50;;;;;;;;;;4959053;28;20547;-77
2023/05/06 12:07:13;;;;;;;0.70;0.53;;;;;;;;;;4945138;29;20481;-78
2023/05/06 12:09:43;;;;;;;0.70;0.50;;;;;;;;;;4938464;29;20482;-80
2023/05/06 12:12:11;;;;;;;0.70;0.50;;;;;;;;;;4945167;29;20476;-80
2023/05/06 12:14:39;;;;;;;0.70;0.60;;;;;;;;;;4940739;29;20513;-80
2023/05/06 12:17:08;;;;;;;0.70;0.50;;;;;;;;;;4935633;28;20605;-81
2023/05/06 12:19:35;;;;;;;0.70;0.60;;;;;;;;;;4945044;29;20473;-79
2023/05/06 12:22:17;;;;;;;0.80;0.60;;;;;;;;;;4938149;29;20472;-81
2023/05/06 12:24:47;;;;;;;0.70;0.50;;;;;;;;;;4945653;29;20473;-81
2023/05/06 12:27:26;;;;;;;0.70;0.60;;;;;;;;;;4942459;28;20850;-82
2023/05/06 12:29:55;;;;;;;0.70;0.60;;;;;;;;;;4940700;29;20524;-82
2023/05/06 12:32:23;;;;;;;0.70;0.60;;;;;;;;;;4940252;29;20449;-84
2023/05/06 12:34:51;;;;;;;0.70;0.60;;;;;;;;;;4945547;29;20517;-81
2023/05/06 12:37:28;;;;;;;0.70;0.60;;;;;;;;;;4923899;29;20489;-82
2023/05/06 12:40:00;;;;;;;0.70;0.60;;;;;;;;;;4927301;29;20464;-83
2023/05/06 12:42:27;;;;;;;0.77;0.70;;;;;;;;;;4943974;29;20475;-82
2023/05/06 12:44:56;;;;;;;0.70;0.60;;;;;;;;;;4938192;28;20469;-79
2023/05/06 12:47:25;;;;;;;0.70;0.60;;;;;;;;;;4941485;29;20450;-80
2023/05/06 12:49:54;;;;;;;0.70;0.50;;;;;;;;;;4941968;28;20489;-80
2023/05/06 12:52:25;;;;;;;0.70;0.50;;;;;;;;;;4944225;29;20492;-84
2023/05/06 12:54:53;;;;;;;0.70;0.60;;;;;;;;;;4945407;29;20443;-80
2023/05/06 12:57:24;;;;;;;0.70;0.60;;;;;;;;;;4941657;29;20441;-83
2023/05/06 12:59:55;;;;;;;0.70;0.60;;;;;;;;;;4940178;29;20488;-81
2023/05/06 13:02:24;;;;;;;0.70;0.63;;;;;;;;;;4945571;29;20429;-81
2023/05/06 13:04:55;;;;;;;0.87;0.87;;;;;;;;;;4952659;29;20537;-82
2023/05/06 13:07:25;;;;;;;0.70;0.60;;;;;;;;;;4951180;29;20522;-83
2023/05/06 13:10:02;;;;;;;0.70;0.60;;;;;;;;;;4952921;29;20457;-82
2023/05/06 13:12:30;;;;;;;0.80;0.70;;;;;;;;;;4929836;29;20560;-81
2023/05/06 13:14:57;;;;;;;0.70;0.60;;;;;;;;;;4937031;29;20491;-82
2023/05/06 13:17:25;;;;;;;0.70;0.60;;;;;;;;;;4948234;29;20476;-81
2023/05/06 13:19:54;;;;;;;0.70;0.60;;;;;;;;;;4947798;29;20716;-81
2023/05/06 13:22:23;;;;;;;0.70;0.60;;;;;;;;;;4943071;29;20529;-81
2023/05/06 13:24:52;;;;;;;0.70;0.60;;;;;;;;;;4940744;29;20911;-81
2023/05/06 13:27:21;;;;;;;0.80;0.80;;;;;;;;;;4932144;29;21043;-81
2023/05/06 13:29:48;;;;;;;0.70;0.60;;;;;;;;;;4929468;29;20552;-81
2023/05/06 13:32:16;;;;;;;0.70;0.60;;;;;;;;;;4947818;29;20464;-79
2023/05/06 13:34:48;;;;;;;0.73;0.70;;;;;;;;;;4942247;29;20469;-79
2023/05/06 13:37:17;;;;;;;0.80;0.80;;;;;;;;;;4942289;29;20544;-80
2023/05/06 13:39:47;;;;;;;0.80;0.77;;;;;;;;;;4930178;29;20532;-81
2023/05/06 13:42:15;;;;;;;0.70;0.70;;;;;;;;;;4942466;29;20425;-78
2023/05/06 13:44:46;;;;;;;0.80;0.70;;;;;;;;;;4948365;28;20484;-81
2023/05/06 13:47:14;;;;;;;0.70;0.60;;;;;;;;;;4944972;29;21005;-80
2023/05/06 13:49:45;;;;;;;0.70;0.60;;;;;;;;;;4944487;29;20493;-78
2023/05/06 13:52:14;;;;;;;0.80;0.80;;;;;;;;;;4946469;28;20479;-78
2023/05/06 13:54:45;;;;;;;0.70;0.60;;;;;;;;;;4943382;29;20532;-80
2023/05/06 13:57:12;;;;;;;0.80;0.70;;;;;;;;;;4944979;28;20466;-79
2023/05/06 13:59:39;;;;;;;0.70;0.60;;;;;;;;;;4940683;29;20547;-78
2023/05/06 14:02:08;;;;;;;0.73;0.63;;;;;;;;;;4927236;29;20415;-80
2023/05/06 14:04:35;;;;;;;0.70;0.60;;;;;;;;;;4940149;29;20461;-79
2023/05/06 14:07:03;;;;;;;0.70;0.60;;;;;;;;;;4941807;29;20507;-77
2023/05/06 14:09:31;;;;;;;0.70;0.60;;;;;;;;;;4910610;29;20527;-79
2023/05/06 14:11:58;;;;;;;0.70;0.70;;;;;;;;;;4928181;29;20460;-74
2023/05/06 14:14:26;;;;;;;0.80;0.70;;;;;;;;;;4937603;29;20538;-75
2023/05/06 14:16:54;;;;;;;0.80;0.80;;;;;;;;;;4941359;29;20448;-77
2023/05/06 14:19:23;;;;;;;0.80;0.70;;;;;;;;;;4939256;29;20436;-75
2023/05/06 14:21:51;;;;;;;0.80;0.70;;;;;;;;;;4942203;29;20465;-77
2023/05/06 14:24:18;;;;;;;0.73;0.70;;;;;;;;;;4941795;29;20452;-77
2023/05/06 14:26:45;;;;;;;0.70;0.70;;;;;;;;;;4938953;29;20457;-76
2023/05/06 14:29:13;;;;;;;0.80;0.70;;;;;;;;;;4937593;29;20627;-77
2023/05/06 14:31:40;;;;;;;0.80;0.80;;;;;;;;;;4936494;29;20443;-78
2023/05/06 14:34:07;;;;;;;0.80;0.80;;;;;;;;;;4945550;29;20445;-77
2023/05/06 14:36:36;;;;;;;0.70;0.67;;;;;;;;;;4926649;29;20460;-79
2023/05/06 14:39:02;;;;;;;0.80;0.70;;;;;;;;;;4923752;29;20466;-79
2023/05/06 14:41:30;;;;;;;0.70;0.70;;;;;;;;;;4935556;29;20942;-80
2023/05/06 14:43:57;;;;;;;0.80;0.70;;;;;;;;;;4943573;29;21266;-78
2023/05/06 14:46:24;;;;;;;0.80;0.70;;;;;;;;;;4935853;29;21116;-74
2023/05/06 14:48:55;;;;;;;0.70;0.60;;;;;;;;;;4944245;29;20493;-75
2023/05/06 14:51:21;;;;;;;0.70;0.70;;;;;;;;;;4938355;29;20447;-79
2023/05/06 14:53:50;;;;;;;0.70;0.60;;;;;;;;;;4943596;29;20444;-75
2023/05/06 14:56:17;;;;;;;0.70;0.70;;;;;;;;;;4940216;29;20447;-76